createdAt,value
2022-09-02T00:01:31.782Z,2.35
2022-09-02T00:04:02.616Z,2.55
2022-09-02T00:06:31.485Z,2.33
2022-09-02T00:09:00.017Z,2.60
2022-09-02T00:11:29.920Z,2.58
2022-09-02T00:14:03.226Z,2.58
2022-09-02T00:16:32.040Z,2.40
2022-09-02T00:19:01.836Z,2.38
2022-09-02T00:21:29.801Z,2.25
2022-09-02T00:23:57.036Z,2.50
2022-09-02T00:26:25.907Z,2.70
2022-09-02T00:28:56.503Z,2.22
2022-09-02T00:31:29.318Z,2.10
2022-09-02T00:33:56.746Z,2.30
2022-09-02T00:36:23.937Z,2.20
2022-09-02T00:38:52.196Z,2.63
2022-09-02T00:41:22.600Z,2.30
2022-09-02T00:44:00.227Z,2.20
2022-09-02T00:46:30.504Z,2.38
2022-09-02T00:49:02.864Z,2.78
2022-09-02T00:51:38.396Z,2.53
2022-09-02T00:54:06.486Z,2.20
2022-09-02T00:56:37.347Z,2.20
2022-09-02T00:59:05.047Z,2.20
2022-09-02T01:01:34.756Z,2.38
2022-09-02T01:04:02.131Z,2.22
2022-09-02T01:06:33.011Z,2.45
2022-09-02T01:09:13.986Z,2.05
2022-09-02T01:11:48.201Z,2.47
2022-09-02T01:14:16.811Z,2.20
2022-09-02T01:16:48.640Z,2.20
2022-09-02T01:19:34.585Z,2.33
2022-09-02T01:22:02.022Z,2.50
2022-09-02T01:24:34.466Z,2.50
2022-09-02T01:27:01.699Z,2.20
2022-09-02T01:29:29.706Z,2.15
2022-09-02T01:31:57.217Z,2.42
2022-09-02T01:34:24.937Z,2.20
2022-09-02T01:36:54.336Z,2.50
2022-09-02T01:39:21.777Z,2.42
2022-09-02T01:41:51.921Z,2.40
2022-09-02T01:44:19.136Z,2.20
2022-09-02T01:46:49.088Z,2.22
2022-09-02T01:49:16.277Z,2.25
2022-09-02T01:51:45.686Z,2.50
2022-09-02T01:54:12.976Z,2.55
2022-09-02T01:56:40.217Z,2.40
2022-09-02T01:59:10.476Z,2.38
2022-09-02T02:01:37.788Z,2.30
2022-09-02T02:04:12.727Z,2.38
2022-09-02T02:06:43.067Z,2.20
2022-09-02T02:09:11.306Z,2.40
2022-09-02T02:11:39.768Z,2.30
2022-09-02T02:14:07.106Z,2.55
2022-09-02T02:16:36.815Z,2.30
2022-09-02T02:19:04.886Z,2.30
2022-09-02T02:21:33.717Z,2.38
2022-09-02T02:24:01.496Z,2.50
2022-09-02T02:26:33.716Z,2.45
2022-09-02T02:29:01.426Z,2.67
2022-09-02T02:31:31.177Z,2.25
2022-09-02T02:33:58.487Z,2.42
2022-09-02T02:36:25.667Z,2.38
2022-09-02T02:38:52.907Z,2.30
2022-09-02T02:41:22.748Z,2.10
2022-09-02T02:43:49.936Z,2.50
2022-09-02T02:46:17.149Z,2.03
2022-09-02T02:48:47.198Z,2.35
2022-09-02T02:51:15.027Z,2.38
2022-09-02T02:53:42.196Z,2.42
2022-09-02T02:56:10.089Z,2.40
2022-09-02T02:58:37.466Z,2.40
2022-09-02T03:01:07.637Z,2.55
2022-09-02T03:03:35.007Z,2.30
2022-09-02T03:06:04.788Z,3.03
2022-09-02T03:08:32.286Z,2.53
2022-09-02T03:10:59.947Z,2.55
2022-09-02T03:13:27.406Z,2.35
2022-09-02T03:16:00.317Z,2.53
2022-09-02T03:18:27.638Z,2.33
2022-09-02T03:20:55.776Z,2.65
2022-09-02T03:23:28.566Z,2.50
2022-09-02T03:25:55.736Z,2.30
2022-09-02T03:28:22.817Z,2.38
2022-09-02T03:30:50.098Z,2.40
2022-09-02T03:33:20.340Z,2.45
2022-09-02T03:35:47.506Z,2.30
2022-09-02T03:38:14.786Z,2.40
2022-09-02T03:40:42.574Z,2.17
2022-09-02T03:43:09.836Z,2.40
2022-09-02T03:45:38.989Z,2.00
2022-09-02T03:48:06.198Z,2.33
2022-09-02T03:50:40.186Z,2.10
2022-09-02T03:53:09.050Z,2.28
2022-09-02T03:55:46.955Z,2.30
2022-09-02T03:58:18.848Z,2.60
2022-09-02T04:00:51.619Z,2.40
2022-09-02T04:03:19.186Z,2.58
2022-09-02T04:05:52.638Z,2.38
2022-09-02T04:08:20.268Z,2.33
2022-09-02T04:10:49.337Z,2.35
2022-09-02T04:13:18.090Z,2.50
2022-09-02T04:15:48.401Z,2.42
2022-09-02T04:18:17.580Z,2.67
2022-09-02T04:20:45.187Z,2.50
2022-09-02T04:23:12.506Z,2.35
2022-09-02T04:25:42.377Z,2.25
2022-09-02T04:28:10.586Z,2.58
2022-09-02T04:30:42.681Z,2.60
2022-09-02T04:33:11.236Z,2.60
2022-09-02T04:35:46.540Z,2.47
2022-09-02T04:38:16.472Z,2.75
2022-09-02T04:40:46.074Z,2.38
2022-09-02T04:43:14.079Z,2.50
2022-09-02T04:45:46.509Z,2.20
2022-09-02T04:48:14.171Z,2.47
2022-09-02T04:50:42.287Z,2.40
2022-09-02T04:53:11.948Z,2.33
2022-09-02T04:55:40.996Z,2.30
2022-09-02T04:58:10.786Z,2.38
2022-09-02T05:00:42.236Z,2.50
2022-09-02T05:03:13.616Z,2.55
2022-09-02T05:05:40.826Z,2.83
2022-09-02T05:08:08.116Z,2.42
2022-09-02T05:10:35.236Z,2.75
2022-09-02T05:13:02.457Z,2.33
2022-09-02T05:15:29.785Z,2.72
2022-09-02T05:18:00.716Z,2.47
2022-09-02T05:20:32.506Z,2.63
2022-09-02T05:22:59.686Z,2.40
2022-09-02T05:25:29.182Z,2.42
2022-09-02T05:27:58.118Z,2.53
2022-09-02T05:30:25.342Z,2.50
2022-09-02T05:32:52.486Z,2.50
2022-09-02T05:35:19.707Z,2.22
2022-09-02T05:37:47.566Z,2.20
2022-09-02T05:40:15.210Z,2.30
2022-09-02T05:42:43.706Z,2.25
2022-09-02T05:45:16.668Z,2.13
2022-09-02T05:47:44.306Z,2.50
2022-09-02T05:50:14.347Z,2.05
2022-09-02T05:52:41.527Z,2.53
2022-09-02T05:55:11.357Z,2.60
2022-09-02T05:57:38.478Z,2.35
2022-09-02T06:00:08.563Z,2.13
2022-09-02T06:02:35.971Z,2.15
2022-09-02T06:05:06.507Z,1.85
2022-09-02T06:07:36.957Z,2.40
2022-09-02T06:10:07.105Z,2.22
2022-09-02T06:12:34.398Z,2.28
2022-09-02T06:15:03.161Z,2.17
2022-09-02T06:17:30.366Z,2.25
2022-09-02T06:19:57.622Z,2.70
2022-09-02T06:22:24.888Z,2.63
2022-09-02T06:24:52.676Z,2.60
2022-09-02T06:27:22.082Z,2.35
2022-09-02T06:29:49.298Z,1.92
2022-09-02T06:32:16.357Z,2.25
2022-09-02T06:34:43.456Z,2.22
2022-09-02T06:37:10.547Z,2.10
2022-09-02T06:39:44.049Z,2.20
2022-09-02T06:42:11.186Z,2.55
2022-09-02T06:44:38.348Z,2.00
2022-09-02T06:47:11.668Z,2.30
2022-09-02T06:49:38.787Z,2.58
2022-09-02T06:52:06.346Z,3.08
2022-09-02T06:54:33.806Z,4.60
2022-09-02T06:57:00.986Z,3.28
2022-09-02T06:59:28.186Z,3.25
2022-09-02T07:01:55.398Z,2.92
2022-09-02T07:04:40.992Z,2.88
2022-09-02T07:07:08.951Z,2.40
2022-09-02T07:09:36.176Z,2.60
2022-09-02T07:12:05.543Z,2.30
2022-09-02T07:14:41.584Z,2.17
2022-09-02T07:17:11.059Z,2.10
2022-09-02T07:19:38.596Z,2.15
2022-09-02T07:22:06.787Z,2.15
2022-09-02T07:24:34.022Z,2.40
2022-09-02T07:27:01.705Z,2.40
2022-09-02T07:29:29.121Z,2.47
2022-09-02T07:31:56.347Z,2.30
2022-09-02T07:34:23.587Z,2.38
2022-09-02T07:36:51.096Z,2.25
2022-09-02T07:39:19.666Z,2.20
2022-09-02T07:41:50.432Z,2.00
2022-09-02T07:44:18.956Z,2.25
2022-09-02T07:46:46.999Z,2.20
2022-09-02T07:49:15.828Z,2.00
2022-09-02T07:51:46.465Z,2.30
2022-09-02T07:54:13.736Z,2.45
2022-09-02T07:56:41.038Z,2.17
2022-09-02T07:59:08.162Z,2.03
2022-09-02T08:01:36.667Z,2.13
2022-09-02T08:04:06.482Z,2.15
2022-09-02T08:06:35.094Z,1.95
2022-09-02T08:09:05.446Z,2.28
2022-09-02T08:11:33.918Z,2.20
2022-09-02T08:14:01.586Z,2.30
2022-09-02T08:16:29.197Z,2.10
2022-09-02T08:18:56.426Z,2.28
2022-09-02T08:21:24.847Z,2.40
2022-09-02T08:23:52.046Z,2.13
2022-09-02T08:26:19.756Z,2.35
2022-09-02T08:28:46.987Z,2.30
2022-09-02T08:31:18.827Z,2.35
2022-09-02T08:33:45.908Z,2.42
2022-09-02T08:36:15.215Z,2.67
2022-09-02T08:38:43.336Z,2.20
2022-09-02T08:41:44.411Z,2.22
2022-09-02T08:44:17.113Z,2.35
2022-09-02T08:46:44.586Z,2.13
2022-09-02T08:49:21.826Z,2.45
2022-09-02T08:52:07.011Z,2.40
2022-09-02T08:54:55.738Z,2.15
2022-09-02T08:57:26.686Z,2.40
2022-09-02T09:00:07.437Z,2.22
2022-09-02T09:02:46.686Z,2.38
2022-09-02T09:05:41.386Z,1.98
2022-09-02T09:08:38.571Z,2.22
2022-09-02T09:11:23.731Z,2.03
2022-09-02T09:14:02.933Z,2.40
2022-09-02T09:16:40.238Z,2.20
2022-09-02T09:19:15.086Z,2.17
2022-09-02T09:21:43.817Z,2.05
2022-09-02T09:24:39.491Z,2.30
2022-09-02T09:27:12.905Z,2.33
2022-09-02T09:29:40.396Z,2.33
2022-09-02T09:32:15.459Z,2.22
2022-09-02T09:35:01.768Z,2.50
2022-09-02T09:37:45.876Z,2.40
2022-09-02T09:40:34.091Z,2.45
2022-09-02T09:43:14.380Z,2.80
2022-09-02T09:45:46.029Z,2.33
2022-09-02T09:48:30.262Z,2.40
2022-09-02T09:50:57.488Z,2.40
2022-09-02T09:53:31.335Z,2.30
2022-09-02T09:56:05.779Z,2.30
2022-09-02T09:58:42.511Z,2.20
2022-09-02T10:01:17.696Z,2.28
2022-09-02T10:06:24.338Z,2.05
2022-09-02T10:08:57.157Z,2.25
2022-09-02T10:11:28.271Z,2.30
2022-09-02T10:14:02.675Z,2.33
2022-09-02T10:16:57.778Z,2.30
2022-09-02T10:19:39.557Z,2.72
2022-09-02T10:22:58.607Z,2.28
2022-09-02T10:26:02.201Z,2.28
2022-09-02T10:28:41.296Z,2.90
2022-09-02T10:31:29.611Z,2.10
2022-09-02T10:34:15.726Z,2.05
2022-09-02T10:37:09.245Z,2.30
2022-09-02T10:40:14.311Z,2.60
2022-09-02T10:42:45.931Z,2.63
2022-09-02T10:45:34.753Z,2.63
2022-09-02T10:48:39.247Z,2.30
2022-09-02T10:51:17.070Z,2.40
2022-09-02T10:53:46.872Z,2.40
2022-09-02T10:56:23.431Z,2.60
2022-09-02T10:59:17.187Z,2.40
2022-09-02T11:01:54.506Z,2.40
2022-09-02T11:04:25.311Z,2.22
2022-09-02T11:07:02.854Z,2.58
2022-09-02T11:09:34.387Z,2.53
2022-09-02T11:12:09.646Z,2.30
2022-09-02T11:17:13.139Z,2.60
2022-09-02T11:20:01.712Z,2.60
2022-09-02T11:23:14.153Z,2.50
2022-09-02T11:26:02.095Z,2.67
2022-09-02T11:29:20.560Z,2.50
2022-09-02T11:32:06.577Z,2.47
2022-09-02T11:34:47.196Z,2.50
2022-09-02T11:37:38.496Z,2.42
2022-09-02T11:40:33.275Z,2.38
2022-09-02T11:43:32.475Z,2.47
2022-09-02T11:46:26.141Z,2.10
2022-09-02T11:49:04.546Z,2.28
2022-09-02T11:51:32.187Z,2.70
2022-09-02T11:54:04.807Z,2.33
2022-09-02T11:56:45.336Z,2.40
2022-09-02T11:59:24.116Z,2.40
2022-09-02T12:01:54.702Z,2.47
2022-09-02T12:07:26.494Z,2.47
2022-09-02T12:10:00.770Z,2.65
2022-09-02T12:12:37.366Z,2.50
2022-09-02T12:15:08.301Z,2.38
2022-09-02T12:17:38.113Z,2.90
2022-09-02T12:20:08.575Z,2.65
2022-09-02T12:22:40.226Z,2.40
2022-09-02T12:25:26.702Z,2.33
2022-09-02T12:28:18.900Z,2.35
2022-09-02T12:31:09.078Z,2.35
2022-09-02T12:33:49.332Z,2.50
2022-09-02T12:36:40.240Z,2.42
2022-09-02T12:39:27.615Z,2.60
2022-09-02T12:41:58.271Z,2.67
2022-09-02T12:44:59.246Z,2.53
2022-09-02T12:47:26.695Z,2.40
2022-09-02T12:50:05.587Z,2.40
2022-09-02T12:52:42.558Z,2.28
2022-09-02T12:55:18.826Z,2.55
2022-09-02T12:57:51.341Z,2.92
2022-09-02T13:00:47.587Z,2.50
2022-09-02T13:03:49.856Z,2.70
2022-09-02T13:06:45.406Z,2.60
2022-09-02T13:09:31.326Z,2.50
2022-09-02T13:12:14.986Z,2.95
2022-09-02T13:14:54.626Z,2.70
2022-09-02T13:17:48.115Z,2.60
2022-09-02T13:20:22.827Z,2.70
2022-09-02T13:22:55.777Z,2.72
2022-09-02T13:25:48.526Z,2.70
2022-09-02T13:28:46.977Z,2.60
2022-09-02T13:31:24.884Z,3.22
2022-09-02T13:33:59.653Z,2.60
2022-09-02T13:36:39.606Z,2.67
2022-09-02T13:39:27.346Z,2.60
2022-09-02T13:41:55.447Z,2.85
2022-09-02T13:44:26.756Z,2.72
2022-09-02T13:47:00.186Z,2.70
2022-09-02T13:49:37.465Z,2.50
2022-09-02T13:52:11.926Z,2.70
2022-09-02T13:54:52.977Z,2.60
2022-09-02T13:57:25.965Z,2.50
2022-09-02T13:59:56.796Z,2.40
2022-09-02T14:02:31.131Z,2.40
2022-09-02T14:05:20.166Z,2.70
2022-09-02T14:07:50.756Z,2.42
2022-09-02T14:10:22.539Z,2.45
2022-09-02T14:12:51.240Z,2.40
2022-09-02T14:15:25.949Z,2.70
2022-09-02T14:18:19.403Z,2.53
2022-09-02T14:21:15.368Z,2.70
2022-09-02T14:23:50.546Z,2.30
2022-09-02T14:28:52.496Z,2.53
2022-09-02T14:31:30.853Z,2.50
2022-09-02T14:33:58.691Z,2.25
2022-09-02T14:36:25.831Z,2.30
2022-09-02T14:38:55.781Z,2.45
2022-09-02T14:41:28.641Z,2.03
2022-09-02T14:43:58.726Z,2.50
2022-09-02T14:46:33.581Z,2.40
2022-09-02T14:49:09.197Z,2.28
2022-09-02T14:51:46.576Z,2.45
2022-09-02T14:54:44.618Z,2.50
2022-09-02T14:57:35.896Z,2.42
2022-09-02T15:00:11.512Z,2.58
2022-09-02T15:02:45.851Z,2.50
2022-09-02T15:05:19.021Z,2.38
2022-09-02T15:07:46.826Z,2.45
2022-09-02T15:10:13.966Z,2.40
2022-09-02T15:12:53.406Z,2.13
2022-09-02T15:15:21.134Z,2.40
2022-09-02T15:17:48.286Z,2.30
2022-09-02T15:20:15.766Z,2.50
2022-09-02T15:22:43.467Z,2.38
2022-09-02T15:25:10.817Z,2.08
2022-09-02T15:27:40.504Z,2.20
2022-09-02T15:30:09.495Z,2.25
2022-09-02T15:32:37.886Z,2.10
2022-09-02T15:35:07.083Z,2.28
2022-09-02T15:37:38.200Z,2.28
2022-09-02T15:40:07.895Z,2.42
2022-09-02T15:42:39.242Z,2.80
2022-09-02T15:45:09.176Z,2.78
2022-09-02T15:47:37.493Z,2.72
2022-09-02T15:50:08.237Z,2.50
2022-09-02T15:52:36.457Z,2.80
2022-09-02T15:55:03.754Z,2.55
2022-09-02T15:57:30.977Z,2.40
2022-09-02T15:59:58.136Z,2.47
2022-09-02T16:02:27.856Z,2.55
2022-09-02T16:04:55.507Z,2.38
2022-09-02T16:07:22.616Z,2.85
2022-09-02T16:09:49.717Z,2.40
2022-09-02T16:12:16.871Z,2.30
2022-09-02T16:14:44.081Z,2.90
2022-09-02T16:17:11.368Z,3.13
2022-09-02T16:19:38.511Z,2.50
2022-09-02T16:22:05.751Z,2.38
2022-09-02T16:24:33.003Z,2.60
2022-09-02T16:27:01.542Z,2.53
2022-09-02T16:29:30.782Z,2.67
2022-09-02T16:32:14.281Z,3.00
2022-09-02T16:34:46.895Z,2.90
2022-09-02T16:37:14.597Z,3.03
2022-09-02T16:39:42.369Z,2.88
2022-09-02T16:42:09.592Z,2.95
2022-09-02T16:44:37.585Z,2.20
2022-09-02T16:47:04.796Z,3.40
2022-09-02T16:49:32.467Z,2.72
2022-09-02T16:51:59.542Z,2.45
2022-09-02T16:54:30.705Z,2.28
2022-09-02T16:57:00.935Z,2.50
2022-09-02T16:59:28.126Z,2.20
2022-09-02T17:01:55.453Z,2.67
2022-09-02T17:04:22.777Z,2.10
2022-09-02T17:06:50.358Z,2.33
2022-09-02T17:09:17.526Z,2.35
2022-09-02T17:11:45.619Z,2.42
2022-09-02T17:14:17.877Z,2.53
2022-09-02T17:16:47.974Z,2.50
2022-09-02T17:19:21.891Z,2.78
2022-09-02T17:21:51.788Z,2.63
2022-09-02T17:24:21.108Z,2.35
2022-09-02T17:26:51.395Z,2.50
2022-09-02T17:29:47.594Z,2.38
2022-09-02T17:32:08.289Z,2.60
2022-09-02T17:34:35.555Z,3.25
2022-09-02T17:37:03.116Z,2.63
2022-09-02T17:39:30.955Z,2.80
2022-09-02T17:41:58.186Z,2.47
2022-09-02T17:44:36.519Z,2.60
2022-09-02T17:47:15.962Z,2.50
2022-09-02T17:49:44.677Z,2.58
2022-09-02T17:52:14.528Z,2.50
2022-09-02T17:54:42.868Z,2.60
2022-09-02T17:57:47.488Z,2.53
2022-09-02T18:00:18.097Z,2.40
2022-09-02T18:03:00.299Z,2.65
2022-09-02T18:05:36.958Z,2.75
2022-09-02T18:08:29.523Z,2.70
2022-09-02T18:11:03.126Z,2.72
2022-09-02T18:14:03.705Z,2.67
2022-09-02T18:16:40.913Z,2.67
2022-09-02T18:19:14.049Z,3.00
2022-09-02T18:22:05.307Z,3.08
2022-09-02T18:24:48.677Z,2.80
2022-09-02T18:27:27.441Z,3.28
2022-09-02T18:30:10.999Z,3.20
2022-09-02T18:32:56.148Z,3.13
2022-09-02T18:35:29.108Z,3.10
2022-09-02T18:38:15.528Z,3.38
2022-09-02T18:40:59.927Z,3.17
2022-09-02T18:43:59.872Z,4.00
2022-09-02T18:46:34.307Z,3.88
2022-09-02T18:49:05.898Z,4.13
2022-09-02T18:51:42.887Z,3.35
2022-09-02T18:54:23.027Z,4.20
2022-09-02T18:56:57.128Z,3.40
2022-09-02T18:59:33.352Z,3.70
2022-09-02T19:02:14.006Z,2.97
2022-09-02T19:04:42.608Z,3.13
2022-09-02T19:07:30.817Z,2.90
2022-09-02T19:10:01.436Z,3.30
2022-09-02T19:12:32.477Z,3.00
2022-09-02T19:15:01.504Z,2.75
2022-09-02T19:17:29.247Z,2.85
2022-09-02T19:19:56.363Z,2.85
2022-09-02T19:22:28.349Z,2.45
2022-09-02T19:25:07.379Z,2.67
2022-09-02T19:27:37.896Z,2.90
2022-09-02T19:30:13.192Z,2.78
2022-09-02T19:35:16.494Z,3.40
2022-09-02T19:37:47.162Z,3.30
2022-09-02T19:40:19.462Z,3.50
2022-09-02T19:42:46.741Z,3.50
2022-09-02T19:45:16.588Z,3.25
2022-09-02T19:48:06.058Z,2.90
2022-09-02T19:50:37.392Z,3.53
2022-09-02T19:53:04.787Z,2.92
2022-09-02T19:55:33.948Z,2.80
2022-09-02T19:58:01.277Z,2.65
2022-09-02T20:00:28.517Z,2.88
2022-09-02T20:02:56.297Z,2.80
2022-09-02T20:05:25.388Z,2.63
2022-09-02T20:07:54.328Z,2.90
2022-09-02T20:10:28.376Z,2.83
2022-09-02T20:12:59.290Z,2.60
2022-09-02T20:15:26.537Z,2.70
2022-09-02T20:17:53.762Z,2.97
2022-09-02T20:20:22.926Z,2.63
2022-09-02T20:22:55.589Z,2.63
2022-09-02T20:25:32.777Z,2.72
2022-09-02T20:28:34.061Z,2.85
2022-09-02T20:31:38.718Z,2.55
2022-09-02T20:34:33.347Z,2.40
2022-09-02T20:37:21.884Z,2.60
2022-09-02T20:40:15.108Z,2.72
2022-09-02T20:43:06.536Z,3.10
2022-09-02T20:45:44.857Z,2.75
2022-09-02T20:48:42.483Z,2.80
2022-09-02T20:51:35.247Z,2.90
2022-09-02T20:54:10.817Z,2.70
2022-09-02T20:56:39.158Z,2.60
2022-09-02T20:59:31.416Z,2.80
2022-09-02T21:02:02.069Z,2.40
2022-09-02T21:04:33.437Z,2.47
2022-09-02T21:07:16.052Z,2.50
2022-09-02T21:10:08.206Z,2.45
2022-09-02T21:13:07.691Z,2.70
2022-09-02T21:15:48.291Z,2.67
2022-09-02T21:18:35.316Z,2.25
2022-09-02T21:21:10.757Z,2.05
2022-09-02T21:26:15.767Z,2.40
2022-09-02T21:28:52.566Z,2.30
2022-09-02T21:32:07.021Z,2.33
2022-09-02T21:34:52.792Z,2.50
2022-09-02T21:37:23.426Z,2.28
2022-09-02T21:40:14.506Z,2.38
2022-09-02T21:42:50.587Z,2.67
2022-09-02T21:45:35.882Z,2.55
2022-09-02T21:48:10.396Z,2.20
2022-09-02T21:50:56.477Z,2.40
2022-09-02T21:53:54.007Z,2.10
2022-09-02T21:56:29.266Z,2.45
2022-09-02T21:59:34.507Z,2.53
2022-09-02T22:02:15.168Z,2.30
2022-09-02T22:05:06.082Z,2.22
2022-09-02T22:07:50.838Z,2.30
2022-09-02T22:10:29.257Z,2.28
2022-09-02T22:13:03.483Z,2.30
2022-09-02T22:15:56.685Z,2.33
2022-09-02T22:18:49.199Z,2.30
2022-09-02T22:21:38.251Z,2.55
2022-09-02T22:24:06.188Z,2.47
2022-09-02T22:26:40.157Z,2.30
2022-09-02T22:29:37.765Z,2.38
2022-09-02T22:32:09.327Z,2.55
2022-09-02T22:34:43.847Z,2.50
2022-09-02T22:37:18.874Z,2.30
2022-09-02T22:39:50.651Z,2.58
2022-09-02T22:42:34.647Z,2.63
2022-09-02T22:45:28.697Z,2.20
2022-09-02T22:48:42.029Z,2.72
2022-09-02T22:51:44.718Z,2.80
2022-09-02T22:54:11.759Z,2.65
2022-09-02T22:57:06.232Z,2.72
2022-09-02T23:00:02.450Z,2.60
2022-09-02T23:06:01.222Z,2.92
2022-09-02T23:08:28.297Z,2.80
2022-09-02T23:11:06.826Z,2.85
2022-09-02T23:14:26.662Z,2.72
2022-09-02T23:17:20.559Z,2.70
2022-09-02T23:20:45.398Z,2.90
2022-09-02T23:23:22.915Z,2.70
2022-09-02T23:25:55.676Z,2.70
2022-09-02T23:28:42.387Z,3.10
2022-09-02T23:31:32.770Z,3.28
2022-09-02T23:34:31.008Z,2.88
2022-09-02T23:37:05.338Z,3.13
2022-09-02T23:40:05.658Z,3.22
2022-09-02T23:42:32.897Z,3.28
2022-09-02T23:45:19.237Z,3.00
2022-09-02T23:48:22.953Z,2.90
2022-09-02T23:51:06.460Z,2.80
2022-09-02T23:54:17.107Z,2.88
2022-09-02T23:56:57.267Z,3.30
